Flight Track Log - Related Links

Times and Time Zones

All times are in EDT time to prevent confusion due to time zone crossing. See the DAL5889 flight status page for this flight to view local times or setup timezone preferences in your user account.

Time Position Orientation Groundspeed Altitude Reporting Facility
EDT Latitude Longitude Course Direction KTS MPH feet Rate Location/Type
Tue 04:14:43 PM 42.3667 -70.9833 258° West 117 135 1,000  Level KA90
Tue 04:16:16 PM 42.3794 -70.8858 80° East 193 222 4,300 2,344 Climbing Boston Center
Tue 04:17:14 PM 42.3842 -70.7761 87° East 244 281 6,900 3,227 Climbing Boston Center
Tue 04:18:15 PM 42.3167 -70.7303 153° Southeast 216 249 10,700 2,656 Climbing Boston Center
Tue 04:19:00 PM 42.1766 -71.0107 258° West  Level FlightAware Approximate
Tue 04:19:16 PM 42.2383 -70.7883 209° Southwest 224 258 12,300  Level Boston Center
Tue 04:20:16 PM 42.2006 -70.9156 248° West 273 314 15,100 1,850 Climbing Boston Center
Tue 04:21:16 PM 42.1814 -71.0447 259° West 364 419 16,000 454 Climbing Boston Center
Tue 04:22:15 PM 42.1581 -71.2050 259° West 389 448 16,000  Level Boston Center
Tue 04:23:15 PM 42.1408 -71.3369 260° West 394 453 16,000  Level Boston Center
Tue 04:24:16 PM 42.1192 -71.4942 260° West 394 453 16,000  Level Boston Center
Tue 04:25:17 PM 42.0975 -71.6400 259° West 394 453 16,000  Level Boston Center
Tue 04:26:14 PM 42.0775 -71.7689 258° West 394 453 16,000  Level Boston Center
Tue 04:27:15 PM 42.0553 -71.9311 260° West 394 453 16,000  Level Boston Center
Tue 04:28:15 PM 42.0350 -72.0572 258° West 394 453 16,000  Level Boston Center
Tue 04:29:16 PM 42.0125 -72.2167 259° West 394 453 16,000  Level Boston Center
Tue 04:30:16 PM 41.9939 -72.3450 259° West 394 453 16,000  Level Boston Center
Tue 04:31:14 PM 41.9711 -72.5017 259° West 394 453 16,000  Level Boston Center
Tue 04:32:15 PM 41.9522 -72.6158 257° West 388 447 16,000 -893 Level Boston Center
Tue 04:33:15 PM 41.9103 -72.7636 249° West 393 452 14,200 -992 Descending Boston Center
Tue 04:34:16 PM 41.8578 -72.8889 241° Southwest 393 452 14,000 -101 Descending Boston Center
Tue 04:35:14 PM 41.8028 -73.0222 241° Southwest 388 447 14,000  Level Boston Center
Tue 04:36:15 PM 41.7542 -73.1414 241° Southwest 377 434 14,000  Level Boston Center
Tue 04:37:15 PM 41.7014 -73.2631 240° Southwest 372 428 14,000  Level Boston Center
Tue 04:38:15 PM 41.6503 -73.3819 240° Southwest 372 428 14,000 -395 Level Boston Center
Tue 04:40:02 PM 41.5500 -73.6000 238° Southwest 367 422 12,900 -1,006 Descending New York TRACON
Tue 04:41:02 PM 41.5167 -73.7167 249° West 355 409 11,200 -1,357 Descending New York TRACON
Tue 04:41:57 PM 41.4500 -73.8000 223° Southwest 335 386 10,300 -1,158 Descending New York TRACON
Tue 04:42:56 PM 41.3833 -73.8167 191° South 303 349 9,000 -655 Descending New York TRACON
Tue 04:43:56 PM 41.3167 -73.7667 151° Southeast 261 300 9,000 -500 Level New York TRACON
Tue 04:44:56 PM 41.2500 -73.7167 151° Southeast 260 299 8,000 -1,048 Descending New York TRACON
Tue 04:46:02 PM 41.1833 -73.6667 151° Southeast 252 290 6,800 -1,240 Descending New York TRACON
Tue 04:46:57 PM 41.1167 -73.6667 180° South 250 288 5,500 -1,350 Descending New York TRACON
Tue 04:48:02 PM 41.0500 -73.6667 180° South 260 299 4,100 -720 Descending New York TRACON
Tue 04:49:02 PM 40.9833 -73.6667 180° South 249 287 4,000 -50 Descending New York TRACON
Tue 04:50:02 PM 40.9167 -73.6500 169° South 242 278 4,000  Level New York TRACON
Tue 04:51:02 PM 40.8500 -73.6833 201° Southwest 210 242 4,000  Level New York TRACON
Tue 04:52:57 PM 40.8000 -73.7833 237° Southwest 196 226 4,000  Level New York TRACON
Tue 04:53:57 PM 40.7833 -73.8500 252° West 196 226 4,000  Level New York TRACON
Tue 04:54:57 PM 40.7667 -73.9167 252° West 199 229 4,000  Level New York TRACON
Tue 04:55:56 PM 40.7500 -73.9833 252° West 197 227 4,000 -336 Level New York TRACON
Tue 04:57:02 PM 40.7000 -74.0167 207° Southwest 208 239 3,300 -496 Descending New York TRACON
Tue 04:57:57 PM 40.7000 -73.9667 90° East 196 226 3,000 -626 Descending New York TRACON
Tue 04:58:57 PM 40.7167 -73.9000 72° East 184 212 2,100 -905 Descending New York TRACON
Tue 05:00:03 PM 40.7333 -73.8500 66° East 136 157 1,100 -810 Descending New York TRACON
Tue 05:01:03 PM 40.7667 -73.8333 21° North 123 142 400 -700 Descending New York TRACON

Login

Don't have an account? Register now (free) for customized features, flight alerts, and more!